createdAt,value
2023-05-22T00:02:17.730Z,13.60
2023-05-22T00:04:47.751Z,13.27
2023-05-22T00:07:17.973Z,13.15
2023-05-22T00:09:46.566Z,13.20
2023-05-22T00:12:14.617Z,13.98
2023-05-22T00:14:43.059Z,14.48
2023-05-22T00:17:15.158Z,13.98
2023-05-22T00:19:45.249Z,14.18
2023-05-22T00:22:14.740Z,14.00
2023-05-22T00:24:42.783Z,14.30
2023-05-22T00:27:10.832Z,13.50
2023-05-22T00:29:38.857Z,13.75
2023-05-22T00:32:08.427Z,14.02
2023-05-22T00:34:36.707Z,13.90
2023-05-22T00:37:05.199Z,14.50
2023-05-22T00:39:34.990Z,14.45
2023-05-22T00:42:03.317Z,14.05
2023-05-22T00:44:31.310Z,13.98
2023-05-22T00:47:00.298Z,14.13
2023-05-22T00:49:28.258Z,14.63
2023-05-22T00:51:57.312Z,13.68
2023-05-22T00:54:25.504Z,14.75
2023-05-22T00:56:56.681Z,14.82
2023-05-22T00:59:25.672Z,14.35
2023-05-22T01:01:53.707Z,14.57
2023-05-22T01:04:22.776Z,14.30
2023-05-22T01:06:51.103Z,15.18
2023-05-22T01:09:19.662Z,13.77
2023-05-22T01:11:57.264Z,14.75
2023-05-22T01:14:37.714Z,14.48
2023-05-22T01:17:22.839Z,15.02
2023-05-22T01:20:06.915Z,15.60
2023-05-22T01:23:06.677Z,14.85
2023-05-22T01:26:02.753Z,15.30
2023-05-22T01:28:43.763Z,14.65
2023-05-22T01:31:16.962Z,15.40
2023-05-22T01:33:50.192Z,14.90
2023-05-22T01:36:23.494Z,15.45
2023-05-22T01:38:54.695Z,15.85
2023-05-22T01:41:23.168Z,15.98
2023-05-22T01:43:51.275Z,16.00
2023-05-22T01:46:21.627Z,16.50
2023-05-22T01:48:49.758Z,16.08
2023-05-22T01:51:25.501Z,16.98
2023-05-22T01:53:59.276Z,16.83
2023-05-22T01:56:35.991Z,16.58
2023-05-22T01:59:11.704Z,16.55
2023-05-22T02:01:43.345Z,16.15
2023-05-22T02:04:12.419Z,15.68
2023-05-22T02:06:42.500Z,18.07
2023-05-22T02:09:12.403Z,16.73
2023-05-22T02:11:42.628Z,18.73
2023-05-22T02:14:13.470Z,17.42
2023-05-22T02:16:48.339Z,17.50
2023-05-22T02:19:16.370Z,16.98
2023-05-22T02:21:45.515Z,17.90
2023-05-22T02:24:14.361Z,17.25
2023-05-22T02:26:44.310Z,16.38
2023-05-22T02:29:13.454Z,18.10
2023-05-22T02:31:43.807Z,16.33
2023-05-22T02:34:11.824Z,16.73
2023-05-22T02:36:40.780Z,17.13
2023-05-22T02:39:09.001Z,17.20
2023-05-22T02:41:38.201Z,16.80
2023-05-22T02:44:06.451Z,16.42
2023-05-22T02:46:35.484Z,16.05
2023-05-22T02:49:05.927Z,16.27
2023-05-22T02:51:34.888Z,16.65
2023-05-22T02:54:03.078Z,16.00
2023-05-22T02:56:32.104Z,16.30
2023-05-22T02:59:00.140Z,15.80
2023-05-22T03:01:30.553Z,15.93
2023-05-22T03:03:59.664Z,16.58
2023-05-22T03:06:29.599Z,15.82
2023-05-22T03:08:58.605Z,15.48
2023-05-22T03:11:26.704Z,16.45
2023-05-22T03:13:55.655Z,15.52
2023-05-22T03:16:24.769Z,15.95
2023-05-22T03:19:09.356Z,15.77
2023-05-22T03:21:39.085Z,15.18
2023-05-22T03:24:09.442Z,15.00
2023-05-22T03:26:37.459Z,15.00
2023-05-22T03:29:09.709Z,14.88
2023-05-22T03:31:41.147Z,14.90
2023-05-22T03:34:13.370Z,14.77
2023-05-22T03:36:45.276Z,15.23
2023-05-22T03:39:16.303Z,14.32
2023-05-22T03:41:54.077Z,14.60
2023-05-22T03:44:24.718Z,13.98
2023-05-22T03:46:52.887Z,15.27
2023-05-22T03:49:21.807Z,16.25
2023-05-22T03:51:51.186Z,16.67
2023-05-22T03:56:47.993Z,15.32
2023-05-22T03:59:17.049Z,15.77
2023-05-22T04:01:46.580Z,15.95
2023-05-22T04:04:16.605Z,15.23
2023-05-22T04:06:44.879Z,15.23
2023-05-22T04:09:16.880Z,15.55
2023-05-22T04:11:46.428Z,14.95
2023-05-22T04:14:15.388Z,21.67
2023-05-22T04:16:43.382Z,16.08
2023-05-22T04:21:44.115Z,16.77
2023-05-22T04:24:13.038Z,15.50
2023-05-22T04:26:42.660Z,15.20
2023-05-22T04:29:14.471Z,14.88
2023-05-22T04:31:42.936Z,14.45
2023-05-22T04:34:14.263Z,15.02
2023-05-22T04:36:45.229Z,15.18
2023-05-22T04:39:14.689Z,15.25
2023-05-22T04:41:44.398Z,15.10
2023-05-22T04:44:14.811Z,14.88
2023-05-22T04:46:43.890Z,15.15
2023-05-22T04:49:12.993Z,16.33
2023-05-22T04:51:41.149Z,15.10
2023-05-22T04:54:09.642Z,14.15
2023-05-22T04:56:37.693Z,15.88
2023-05-22T04:59:09.628Z,15.80
2023-05-22T05:01:39.784Z,15.23
2023-05-22T05:04:09.816Z,15.77
2023-05-22T05:06:38.411Z,15.50
2023-05-22T05:09:07.133Z,15.27
2023-05-22T05:11:37.781Z,15.32
2023-05-22T05:14:07.183Z,15.70
2023-05-22T05:16:36.541Z,16.70
2023-05-22T05:19:04.608Z,16.23
2023-05-22T05:21:33.594Z,16.52
2023-05-22T05:24:02.492Z,15.48
2023-05-22T05:26:31.980Z,16.73
2023-05-22T05:29:00.182Z,16.23
2023-05-22T05:31:38.998Z,17.25
2023-05-22T05:34:22.502Z,16.45
2023-05-22T05:37:12.944Z,16.48
2023-05-22T05:39:41.495Z,17.92
2023-05-22T05:42:11.403Z,17.55
2023-05-22T05:44:39.725Z,17.33
2023-05-22T05:47:10.243Z,16.42
2023-05-22T05:49:38.651Z,16.35
2023-05-22T05:52:09.247Z,16.67
2023-05-22T05:57:14.295Z,15.65
2023-05-22T05:59:42.296Z,15.23
2023-05-22T06:02:33.009Z,15.02
2023-05-22T06:05:05.100Z,14.70
2023-05-22T06:07:38.570Z,15.27
2023-05-22T06:10:11.942Z,14.95
2023-05-22T06:12:51.469Z,15.32
2023-05-22T06:15:19.706Z,14.25
2023-05-22T06:17:50.155Z,14.55
2023-05-22T06:20:19.027Z,13.88
2023-05-22T06:22:48.001Z,13.60
2023-05-22T06:25:16.345Z,13.18
2023-05-22T06:27:45.624Z,13.48
2023-05-22T06:30:20.290Z,12.82
2023-05-22T06:32:55.829Z,13.13
2023-05-22T06:37:53.187Z,12.38
2023-05-22T06:40:21.480Z,11.85
2023-05-22T06:42:53.817Z,12.73
2023-05-22T06:45:45.761Z,11.88
2023-05-22T06:48:36.758Z,12.05
2023-05-22T06:51:25.426Z,12.18
2023-05-22T06:54:04.085Z,11.57
2023-05-22T06:56:33.184Z,11.45
2023-05-22T06:59:08.089Z,12.00
2023-05-22T07:01:53.856Z,11.68
2023-05-22T07:04:48.274Z,12.13
2023-05-22T07:07:22.949Z,12.25
2023-05-22T07:09:51.930Z,11.82
2023-05-22T07:12:20.780Z,11.90
2023-05-22T07:14:49.258Z,11.43
2023-05-22T07:17:18.716Z,11.52
2023-05-22T07:19:48.764Z,11.43
2023-05-22T07:22:16.861Z,11.77
2023-05-22T07:24:47.370Z,10.98
2023-05-22T07:27:18.480Z,11.05
2023-05-22T07:29:48.935Z,11.60
2023-05-22T07:32:18.162Z,11.77
2023-05-22T07:34:48.150Z,10.75
2023-05-22T07:39:48.078Z,11.65
2023-05-22T07:42:16.658Z,11.57
2023-05-22T07:44:53.290Z,11.35
2023-05-22T07:47:22.501Z,11.75
2023-05-22T07:49:53.306Z,11.40
2023-05-22T07:52:21.870Z,11.52
2023-05-22T07:54:51.710Z,11.85
2023-05-22T07:57:20.694Z,11.63
2023-05-22T07:59:49.281Z,12.02
2023-05-22T08:02:19.305Z,11.83
2023-05-22T08:07:18.203Z,12.35
2023-05-22T08:09:46.929Z,11.85
2023-05-22T08:12:15.446Z,11.80
2023-05-22T08:14:43.520Z,11.73
2023-05-22T08:17:11.996Z,11.45
2023-05-22T08:19:40.662Z,11.40
2023-05-22T08:22:08.983Z,11.82
2023-05-22T08:24:39.309Z,10.88
2023-05-22T08:27:08.262Z,11.68
2023-05-22T08:29:36.774Z,10.57
2023-05-22T08:32:05.602Z,10.95
2023-05-22T08:34:34.079Z,11.18
2023-05-22T08:37:03.160Z,11.07
2023-05-22T08:39:31.413Z,12.47
2023-05-22T08:42:02.536Z,12.50
2023-05-22T08:44:31.147Z,11.63
2023-05-22T08:47:00.323Z,12.27
2023-05-22T08:49:28.524Z,10.82
2023-05-22T08:52:04.661Z,11.75
2023-05-22T08:54:34.626Z,11.18
2023-05-22T08:57:05.614Z,11.20
2023-05-22T08:59:35.808Z,10.88
2023-05-22T09:02:07.117Z,11.07
2023-05-22T09:04:35.268Z,10.65
2023-05-22T09:07:06.288Z,11.23
2023-05-22T09:09:37.870Z,11.25
2023-05-22T09:12:10.320Z,10.80
2023-05-22T09:14:41.816Z,10.48
2023-05-22T09:17:11.396Z,10.73
2023-05-22T09:19:43.893Z,11.25
2023-05-22T09:22:13.017Z,10.07
2023-05-22T09:24:43.253Z,10.00
2023-05-22T09:27:13.889Z,10.95
2023-05-22T09:29:49.729Z,10.30
2023-05-22T09:32:18.781Z,11.13
2023-05-22T09:34:47.928Z,11.23
2023-05-22T09:37:16.715Z,10.20
2023-05-22T09:39:45.751Z,10.52
2023-05-22T09:44:49.921Z,9.93
2023-05-22T09:47:19.000Z,10.13
2023-05-22T09:49:47.555Z,9.37
2023-05-22T09:52:17.559Z,10.10
2023-05-22T09:54:53.927Z,9.98
2023-05-22T09:57:26.778Z,9.77
2023-05-22T09:59:58.872Z,10.48
2023-05-22T10:02:29.322Z,10.35
2023-05-22T10:04:58.431Z,10.80
2023-05-22T10:07:33.783Z,10.35
2023-05-22T10:10:09.182Z,10.27
2023-05-22T10:12:44.530Z,9.93
2023-05-22T10:15:14.492Z,10.13
2023-05-22T10:20:13.716Z,10.15
2023-05-22T10:22:43.017Z,9.15
2023-05-22T10:25:11.779Z,10.10
2023-05-22T10:27:42.028Z,9.52
2023-05-22T10:30:30.575Z,10.60
2023-05-22T10:33:26.103Z,9.57
2023-05-22T10:35:59.613Z,9.32
2023-05-22T10:38:44.324Z,10.20
2023-05-22T10:41:13.714Z,10.05
2023-05-22T10:43:43.939Z,9.63
2023-05-22T10:46:14.683Z,10.10
2023-05-22T10:48:46.553Z,9.90
2023-05-22T10:51:15.604Z,10.35
2023-05-22T10:53:45.285Z,10.90
2023-05-22T10:56:16.011Z,10.45
2023-05-22T10:58:56.612Z,10.02
2023-05-22T11:01:27.951Z,10.48
2023-05-22T11:04:12.183Z,9.35
2023-05-22T11:06:45.804Z,9.38
2023-05-22T11:09:30.655Z,10.10
2023-05-22T11:12:25.785Z,10.43
2023-05-22T11:14:57.313Z,9.55
2023-05-22T11:17:27.838Z,10.27
2023-05-22T11:20:05.273Z,10.73
2023-05-22T11:22:37.497Z,10.60
2023-05-22T11:25:08.842Z,10.35
2023-05-22T11:27:39.547Z,10.75
2023-05-22T11:30:12.071Z,11.70
2023-05-22T11:32:44.646Z,11.77
2023-05-22T11:35:15.662Z,12.70
2023-05-22T11:37:44.863Z,12.55
2023-05-22T11:40:15.272Z,12.18
2023-05-22T11:42:43.919Z,13.45
2023-05-22T11:45:13.660Z,12.57
2023-05-22T11:47:43.138Z,12.35
2023-05-22T11:50:12.660Z,11.90
2023-05-22T11:52:42.128Z,11.30
2023-05-22T11:57:39.779Z,13.07
2023-05-22T12:00:11.044Z,13.02
2023-05-22T12:02:47.961Z,13.48
2023-05-22T12:05:19.240Z,12.38
2023-05-22T12:07:49.475Z,13.10
2023-05-22T12:10:19.632Z,12.43
2023-05-22T12:12:48.967Z,12.00
2023-05-22T12:15:20.907Z,12.32
2023-05-22T12:17:50.402Z,12.82
2023-05-22T12:20:19.050Z,13.23
2023-05-22T12:22:47.953Z,12.63
2023-05-22T12:25:20.399Z,13.40
2023-05-22T12:27:49.761Z,13.77
2023-05-22T12:30:18.539Z,13.43
2023-05-22T12:32:51.868Z,12.73
2023-05-22T12:35:20.246Z,11.93
2023-05-22T12:37:52.546Z,12.88
2023-05-22T12:40:20.707Z,13.00
2023-05-22T12:42:49.459Z,12.02
2023-05-22T12:45:19.337Z,11.85
2023-05-22T12:47:47.578Z,13.75
2023-05-22T12:50:17.602Z,12.70
2023-05-22T12:52:46.739Z,12.95
2023-05-22T12:55:14.855Z,12.25
2023-05-22T12:57:43.486Z,12.95
2023-05-22T13:00:13.226Z,13.75
2023-05-22T13:02:41.419Z,14.20
2023-05-22T13:05:09.763Z,15.30
2023-05-22T13:07:40.162Z,14.45
2023-05-22T13:10:09.757Z,15.52
2023-05-22T13:12:37.726Z,14.77
2023-05-22T13:15:07.729Z,15.97
2023-05-22T13:17:37.420Z,15.38
2023-05-22T13:20:06.585Z,14.40
2023-05-22T13:22:35.285Z,14.40
2023-05-22T13:25:05.328Z,14.13
2023-05-22T13:27:34.052Z,14.05
2023-05-22T13:30:03.696Z,13.70
2023-05-22T13:32:36.166Z,14.95
2023-05-22T13:35:07.803Z,14.90
2023-05-22T13:37:37.974Z,15.30
2023-05-22T13:40:09.848Z,14.02
2023-05-22T13:42:42.166Z,14.20
2023-05-22T13:45:12.637Z,14.45
2023-05-22T13:47:47.207Z,13.98
2023-05-22T13:50:16.298Z,15.18
2023-05-22T13:55:15.436Z,15.23
2023-05-22T13:57:44.842Z,14.55
2023-05-22T14:00:15.287Z,14.82
2023-05-22T14:02:45.010Z,14.48
2023-05-22T14:05:14.165Z,13.70
2023-05-22T14:07:43.193Z,16.08
2023-05-22T14:10:12.795Z,14.88
2023-05-22T14:12:43.028Z,15.07
2023-05-22T14:15:12.544Z,16.30
2023-05-22T14:17:40.760Z,14.90
2023-05-22T14:20:10.855Z,5.72
2023-05-22T14:22:55.876Z,5.82
2023-05-22T14:25:25.738Z,5.65
2023-05-22T14:27:56.517Z,5.68
2023-05-22T14:30:24.997Z,6.10
2023-05-22T14:32:53.028Z,6.93
2023-05-22T14:35:22.179Z,6.40
2023-05-22T14:37:50.590Z,7.20
2023-05-22T14:40:19.368Z,6.63
2023-05-22T14:42:47.951Z,6.20
2023-05-22T14:45:17.473Z,6.50
2023-05-22T14:50:19.533Z,5.45
2023-05-22T14:52:48.866Z,5.47
2023-05-22T14:55:18.274Z,4.97
2023-05-22T14:57:46.523Z,4.47
2023-05-22T15:00:16.070Z,4.00
2023-05-22T15:02:45.864Z,3.50
2023-05-22T15:05:14.351Z,3.90
2023-05-22T15:07:45.767Z,3.70
2023-05-22T15:10:15.474Z,3.58
2023-05-22T15:12:44.094Z,3.50
2023-05-22T15:15:12.795Z,3.60
2023-05-22T15:17:42.878Z,3.92
2023-05-22T15:20:14.320Z,4.10
2023-05-22T15:22:43.073Z,4.13
2023-05-22T15:25:15.447Z,4.40
2023-05-22T15:27:44.050Z,4.90
2023-05-22T15:30:12.454Z,4.28
2023-05-22T15:32:41.127Z,4.10
2023-05-22T15:35:10.189Z,4.55
2023-05-22T15:37:39.713Z,4.47
2023-05-22T15:40:10.150Z,5.00
2023-05-22T15:42:39.306Z,5.05
2023-05-22T15:45:08.548Z,4.82
2023-05-22T15:47:37.186Z,5.10
2023-05-22T15:50:06.505Z,5.20
2023-05-22T15:52:34.534Z,6.00
2023-05-22T15:55:03.976Z,5.07
2023-05-22T15:57:32.983Z,6.05
2023-05-22T16:00:00.997Z,5.93
2023-05-22T16:02:33.030Z,5.47
2023-05-22T16:05:01.306Z,6.17
2023-05-22T16:07:29.338Z,6.78
2023-05-22T16:09:58.229Z,6.20
2023-05-22T16:12:27.600Z,6.45
2023-05-22T16:15:00.320Z,8.13
2023-05-22T16:17:30.702Z,10.55
2023-05-22T16:19:58.682Z,10.35
2023-05-22T16:22:39.998Z,11.88
2023-05-22T16:25:16.905Z,12.43
2023-05-22T16:27:46.466Z,11.20
2023-05-22T16:30:19.417Z,9.80
2023-05-22T16:32:49.014Z,10.43
2023-05-22T16:35:19.416Z,12.93
2023-05-22T16:37:47.547Z,13.02
2023-05-22T16:40:15.859Z,12.93
2023-05-22T16:42:44.387Z,11.77
2023-05-22T16:45:13.878Z,11.30
2023-05-22T16:47:42.274Z,11.05
2023-05-22T16:50:11.251Z,10.82
2023-05-22T16:52:39.688Z,13.20
2023-05-22T16:55:09.418Z,14.40
2023-05-22T16:57:37.941Z,15.70
2023-05-22T17:00:07.519Z,15.65
2023-05-22T17:02:39.149Z,15.93
2023-05-22T17:05:08.669Z,15.82
2023-05-22T17:07:37.839Z,17.77
2023-05-22T17:10:07.895Z,18.25
2023-05-22T17:12:36.616Z,19.52
2023-05-22T17:15:07.182Z,17.97
2023-05-22T17:17:35.346Z,18.55
2023-05-22T17:20:07.344Z,18.35
2023-05-22T17:22:37.127Z,16.38
2023-05-22T17:25:06.274Z,16.98
2023-05-22T17:30:08.396Z,15.45
2023-05-22T17:32:37.673Z,16.10
2023-05-22T17:35:08.207Z,16.85
2023-05-22T17:37:36.773Z,17.70
2023-05-22T17:40:05.262Z,18.65
2023-05-22T17:42:34.298Z,18.45
2023-05-22T17:45:02.759Z,18.95
2023-05-22T17:47:31.052Z,18.63
2023-05-22T17:49:59.597Z,17.50
2023-05-22T17:52:29.778Z,18.67
2023-05-22T17:54:57.796Z,18.02
2023-05-22T17:57:26.656Z,17.08
2023-05-22T17:59:55.314Z,16.60
2023-05-22T18:02:26.482Z,15.77
2023-05-22T18:04:54.639Z,13.75
2023-05-22T18:07:22.633Z,12.65
2023-05-22T18:09:52.109Z,11.98
2023-05-22T18:14:52.470Z,9.77
2023-05-22T18:17:20.509Z,6.50
2023-05-22T18:19:48.536Z,6.90
2023-05-22T18:22:16.751Z,7.95
2023-05-22T18:24:44.800Z,7.20
2023-05-22T18:27:14.156Z,8.23
2023-05-22T18:29:42.595Z,10.05
2023-05-22T18:32:11.006Z,9.02
2023-05-22T18:34:39.018Z,7.47
2023-05-22T18:37:07.090Z,8.20
2023-05-22T18:39:35.182Z,8.48
2023-05-22T18:42:03.805Z,8.02
2023-05-22T18:44:34.215Z,8.35
2023-05-22T18:47:02.417Z,8.85
2023-05-22T18:49:30.411Z,8.75
2023-05-22T18:51:58.971Z,10.77
2023-05-22T18:54:26.956Z,10.40
2023-05-22T18:56:55.030Z,10.90
2023-05-22T18:59:23.168Z,10.43
2023-05-22T19:01:52.814Z,10.15
2023-05-22T19:04:21.154Z,11.80
2023-05-22T19:06:49.711Z,11.20
2023-05-22T19:09:17.664Z,12.43
2023-05-22T19:11:46.578Z,13.95
2023-05-22T19:14:14.592Z,13.40
2023-05-22T19:16:44.098Z,14.88
2023-05-22T19:19:15.308Z,15.60
2023-05-22T19:21:44.332Z,17.00
2023-05-22T19:24:12.294Z,16.35
2023-05-22T19:26:41.014Z,17.50
2023-05-22T19:29:09.046Z,16.63
2023-05-22T19:31:37.346Z,17.33
2023-05-22T19:34:05.597Z,17.77
2023-05-22T19:36:36.190Z,16.80
2023-05-22T19:41:32.275Z,16.15
2023-05-22T19:44:00.360Z,17.25
2023-05-22T19:46:28.794Z,15.20
2023-05-22T19:48:56.849Z,13.90
2023-05-22T19:51:24.860Z,13.80
2023-05-22T19:53:54.456Z,13.35
2023-05-22T19:56:22.532Z,12.23
2023-05-22T19:58:50.537Z,12.60
2023-05-22T20:01:19.059Z,11.45
2023-05-22T20:03:47.140Z,11.38
2023-05-22T20:06:15.691Z,11.77
2023-05-22T20:08:44.293Z,11.30
2023-05-22T20:11:13.730Z,10.10
2023-05-22T20:13:41.872Z,10.32
2023-05-22T20:16:13.243Z,9.10
2023-05-22T20:18:41.984Z,10.43
2023-05-22T20:21:12.028Z,10.00
2023-05-22T20:23:40.790Z,10.07
2023-05-22T20:26:08.902Z,10.07
2023-05-22T20:28:38.308Z,10.75
2023-05-22T20:31:06.964Z,10.60
2023-05-22T20:33:35.061Z,11.20
2023-05-22T20:36:04.689Z,11.90
2023-05-22T20:38:34.727Z,12.00
2023-05-22T20:41:09.180Z,11.55
2023-05-22T20:43:39.267Z,11.63
2023-05-22T20:46:08.305Z,11.57
2023-05-22T20:48:36.433Z,12.90
2023-05-22T20:51:04.758Z,13.98
2023-05-22T20:53:33.723Z,13.35
2023-05-22T20:56:01.883Z,14.48
2023-05-22T20:58:30.810Z,15.30
2023-05-22T21:01:00.182Z,16.55
2023-05-22T21:05:56.955Z,16.63
2023-05-22T21:08:24.978Z,16.98
2023-05-22T21:10:52.953Z,18.50
2023-05-22T21:13:21.515Z,18.83
2023-05-22T21:15:49.902Z,19.40
2023-05-22T21:18:19.997Z,22.25
2023-05-22T21:20:48.567Z,22.98
2023-05-22T21:23:16.730Z,24.83
2023-05-22T21:25:45.175Z,25.27
2023-05-22T21:28:13.757Z,25.80
2023-05-22T21:30:42.019Z,25.23
2023-05-22T21:33:10.116Z,27.30
2023-05-22T21:35:40.520Z,28.77
2023-05-22T21:38:08.536Z,29.50
2023-05-22T21:40:36.559Z,31.05
2023-05-22T21:43:06.286Z,33.08
2023-05-22T21:45:34.353Z,32.17
2023-05-22T21:48:02.840Z,32.20
2023-05-22T21:50:31.291Z,35.83
2023-05-22T21:53:00.950Z,35.33
2023-05-22T21:55:28.930Z,34.75
2023-05-22T21:57:57.462Z,36.75
2023-05-22T22:00:25.659Z,37.08
2023-05-22T22:02:55.592Z,38.05
2023-05-22T22:05:24.467Z,38.58
2023-05-22T22:07:52.945Z,38.17
2023-05-22T22:10:23.314Z,38.55
2023-05-22T22:12:51.390Z,38.63
2023-05-22T22:15:19.413Z,38.97
2023-05-22T22:17:48.334Z,38.88
2023-05-22T22:20:17.417Z,36.55
2023-05-22T22:22:46.701Z,36.05
2023-05-22T22:25:15.155Z,35.85
2023-05-22T22:27:45.366Z,35.53
2023-05-22T22:32:42.147Z,32.65
2023-05-22T22:35:11.431Z,34.00
2023-05-22T22:37:40.462Z,32.95
2023-05-22T22:40:09.850Z,33.80
2023-05-22T22:42:37.813Z,33.28
2023-05-22T22:45:10.171Z,34.10
2023-05-22T22:47:38.271Z,32.42
2023-05-22T22:50:08.242Z,32.88
2023-05-22T22:52:38.276Z,30.70
2023-05-22T22:57:36.059Z,30.50
2023-05-22T23:00:04.352Z,31.25
2023-05-22T23:02:34.270Z,31.35
2023-05-22T23:07:31.337Z,27.93
2023-05-22T23:09:59.462Z,28.50
2023-05-22T23:12:27.472Z,28.08
2023-05-22T23:14:55.573Z,28.05
2023-05-22T23:17:24.499Z,25.45
2023-05-22T23:19:53.804Z,26.33
2023-05-22T23:22:22.209Z,24.25
2023-05-22T23:24:50.332Z,22.42
2023-05-22T23:27:18.341Z,22.42
2023-05-22T23:29:46.422Z,22.20
2023-05-22T23:32:15.555Z,22.23
2023-05-22T23:34:43.556Z,22.10
2023-05-22T23:37:13.445Z,22.55
2023-05-22T23:42:11.041Z,20.25
2023-05-22T23:44:39.572Z,22.58
2023-05-22T23:47:08.596Z,22.80
2023-05-22T23:49:36.720Z,21.70
2023-05-22T23:52:04.991Z,21.20
2023-05-22T23:54:35.328Z,21.92
2023-05-22T23:59:32.044Z,20.42
